createdAt,value
2023-12-18T00:01:29.406Z,92.90
2023-12-18T00:03:56.639Z,89.10
2023-12-18T00:06:23.972Z,87.90
2023-12-18T00:08:51.054Z,90.20
2023-12-18T00:11:18.049Z,78.30
2023-12-18T00:13:45.225Z,78.90
2023-12-18T00:16:13.413Z,71.80
2023-12-18T00:18:40.733Z,77.30
2023-12-18T00:21:07.828Z,91.00
2023-12-18T00:23:35.059Z,94.90
2023-12-18T00:26:02.194Z,84.70
2023-12-18T00:28:29.331Z,63.20
2023-12-18T00:30:56.700Z,61.20
2023-12-18T00:33:24.152Z,64.10
2023-12-18T00:35:51.681Z,56.90
2023-12-18T00:38:18.773Z,78.70
2023-12-18T00:40:45.842Z,82.50
2023-12-18T00:43:13.028Z,72.10
2023-12-18T00:45:40.201Z,75.10
2023-12-18T00:48:07.761Z,69.90
2023-12-18T00:50:34.943Z,73.90
2023-12-18T00:53:02.066Z,69.40
2023-12-18T00:55:29.361Z,80.30
2023-12-18T00:57:56.761Z,88.90
2023-12-18T01:00:24.190Z,86.50
2023-12-18T01:02:51.223Z,75.20
2023-12-18T01:05:18.312Z,70.40
2023-12-18T01:07:45.405Z,77.40
2023-12-18T01:10:12.627Z,89.40
2023-12-18T01:12:39.719Z,87.60
2023-12-18T01:15:07.330Z,77.80
2023-12-18T01:17:36.457Z,75.30
2023-12-18T01:20:06.281Z,66.50
2023-12-18T01:22:33.761Z,62.00
2023-12-18T01:25:01.526Z,57.60
2023-12-18T01:27:28.705Z,62.90
2023-12-18T01:29:55.964Z,58.40
2023-12-18T01:32:23.375Z,55.80
2023-12-18T01:34:50.597Z,55.40
2023-12-18T01:37:17.585Z,60.40
2023-12-18T01:39:44.805Z,59.50
2023-12-18T01:42:12.387Z,68.10
2023-12-18T01:44:39.674Z,80.70
2023-12-18T01:47:08.249Z,59.60
2023-12-18T01:49:36.644Z,55.00
2023-12-18T01:52:04.922Z,51.60
2023-12-18T01:54:32.591Z,46.60
2023-12-18T01:57:01.157Z,43.80
2023-12-18T01:59:28.909Z,41.90
2023-12-18T02:01:56.118Z,45.20
2023-12-18T02:04:23.572Z,52.40
2023-12-18T02:06:50.703Z,51.90
2023-12-18T02:09:17.923Z,51.40
2023-12-18T02:11:45.752Z,51.80
2023-12-18T02:14:13.542Z,45.40
2023-12-18T02:16:41.611Z,44.30
2023-12-18T02:19:25.889Z,43.40
2023-12-18T02:21:55.462Z,37.50
2023-12-18T02:24:23.062Z,38.00
2023-12-18T02:26:51.554Z,36.60
2023-12-18T02:29:18.785Z,37.20
2023-12-18T02:31:46.093Z,39.90
2023-12-18T02:34:13.512Z,54.60
2023-12-18T02:36:40.743Z,55.30
2023-12-18T02:39:07.991Z,53.40
2023-12-18T02:41:35.250Z,52.30
2023-12-18T02:44:02.778Z,54.70
2023-12-18T02:46:29.892Z,56.20
2023-12-18T02:48:56.891Z,49.00
2023-12-18T02:51:24.075Z,52.30
2023-12-18T02:53:51.345Z,49.50
2023-12-18T02:56:18.524Z,42.10
2023-12-18T02:58:45.778Z,42.80
2023-12-18T03:01:13.039Z,37.40
2023-12-18T03:03:40.162Z,37.40
2023-12-18T03:06:07.452Z,35.20
2023-12-18T03:08:35.101Z,36.00
2023-12-18T03:11:02.997Z,32.10
2023-12-18T03:13:30.229Z,41.40
2023-12-18T03:15:58.392Z,50.10
2023-12-18T03:18:25.725Z,52.30
2023-12-18T03:20:52.860Z,53.20
2023-12-18T03:23:20.000Z,46.30
2023-12-18T03:25:47.426Z,43.20
2023-12-18T03:28:16.735Z,40.20
2023-12-18T03:30:44.685Z,40.80
2023-12-18T03:33:12.268Z,40.00
2023-12-18T03:35:39.362Z,38.00
2023-12-18T03:38:06.716Z,35.20
2023-12-18T03:40:33.896Z,34.50
2023-12-18T03:43:01.310Z,34.20
2023-12-18T03:45:28.376Z,36.60
2023-12-18T03:47:55.464Z,34.20
2023-12-18T03:50:22.478Z,35.90
2023-12-18T03:52:49.617Z,33.70
2023-12-18T03:55:17.260Z,32.70
2023-12-18T03:57:44.759Z,30.70
2023-12-18T04:00:12.754Z,28.60
2023-12-18T04:02:40.041Z,32.10
2023-12-18T04:05:07.711Z,30.20
2023-12-18T04:07:34.909Z,32.80
2023-12-18T04:10:02.041Z,29.40
2023-12-18T04:12:29.292Z,29.30
2023-12-18T04:14:56.315Z,32.90
2023-12-18T04:17:23.768Z,31.50
2023-12-18T04:19:51.341Z,32.30
2023-12-18T04:22:18.543Z,32.10
2023-12-18T04:24:45.722Z,32.30
2023-12-18T04:27:12.950Z,30.00
2023-12-18T04:29:40.212Z,31.30
2023-12-18T04:32:07.588Z,28.40
2023-12-18T04:34:35.377Z,29.60
2023-12-18T04:37:04.042Z,33.30
2023-12-18T04:39:33.564Z,32.60
2023-12-18T04:42:00.773Z,45.30
2023-12-18T04:44:29.028Z,51.60
2023-12-18T04:46:56.677Z,57.50
2023-12-18T04:49:25.194Z,54.70
2023-12-18T04:51:52.515Z,58.10
2023-12-18T04:54:19.759Z,51.50
2023-12-18T04:56:47.114Z,47.60
2023-12-18T04:59:14.882Z,47.50
2023-12-18T05:01:41.930Z,40.80
2023-12-18T05:04:09.304Z,40.00
2023-12-18T05:06:36.494Z,37.20
2023-12-18T05:09:03.826Z,34.90
2023-12-18T05:11:31.228Z,33.00
2023-12-18T05:13:58.248Z,34.00
2023-12-18T05:16:25.531Z,38.40
2023-12-18T05:18:54.301Z,36.00
2023-12-18T05:21:21.459Z,35.30
2023-12-18T05:23:50.373Z,38.30
2023-12-18T05:26:17.785Z,40.00
2023-12-18T05:28:44.827Z,39.70
2023-12-18T05:31:12.808Z,38.90
2023-12-18T05:33:40.748Z,43.40
2023-12-18T05:36:08.324Z,48.00
2023-12-18T05:38:35.606Z,46.00
2023-12-18T05:41:02.781Z,41.70
2023-12-18T05:43:29.814Z,35.90
2023-12-18T05:45:57.225Z,39.40
2023-12-18T05:48:24.722Z,45.90
2023-12-18T05:50:52.114Z,48.90
2023-12-18T05:53:19.376Z,41.50
2023-12-18T05:55:47.235Z,47.90
2023-12-18T05:58:14.432Z,45.40
2023-12-18T06:00:41.745Z,51.30
2023-12-18T06:03:08.983Z,48.70
2023-12-18T06:05:36.371Z,49.10
2023-12-18T06:08:04.540Z,42.70
2023-12-18T06:10:31.699Z,36.70
2023-12-18T06:12:59.141Z,38.40
2023-12-18T06:15:26.402Z,42.60
2023-12-18T06:17:53.545Z,45.10
2023-12-18T06:20:20.819Z,41.50
2023-12-18T06:22:47.985Z,40.70
2023-12-18T06:25:15.463Z,42.10
2023-12-18T06:27:45.106Z,42.70
2023-12-18T06:30:14.274Z,42.00
2023-12-18T06:32:42.392Z,40.40
2023-12-18T06:35:09.819Z,39.90
2023-12-18T06:37:37.026Z,40.10
2023-12-18T06:40:04.679Z,41.10
2023-12-18T06:42:31.688Z,47.00
2023-12-18T06:44:58.932Z,46.10
2023-12-18T06:47:26.312Z,45.40
2023-12-18T06:49:53.611Z,46.10
2023-12-18T06:52:20.710Z,73.30
2023-12-18T06:54:47.961Z,57.70
2023-12-18T06:57:16.979Z,53.40
2023-12-18T06:59:44.544Z,53.70
2023-12-18T07:02:11.887Z,55.70
2023-12-18T07:04:39.568Z,51.60
2023-12-18T07:07:08.146Z,56.90
2023-12-18T07:09:35.460Z,54.70
2023-12-18T07:12:03.184Z,62.10
2023-12-18T07:14:30.435Z,87.90
2023-12-18T07:16:57.424Z,88.70
2023-12-18T07:19:24.565Z,77.60
2023-12-18T07:21:51.912Z,73.00
2023-12-18T07:24:19.178Z,81.60
2023-12-18T07:26:46.314Z,78.10
2023-12-18T07:29:13.871Z,69.60
2023-12-18T07:31:41.377Z,69.70
2023-12-18T07:34:08.804Z,71.30
2023-12-18T07:36:40.051Z,70.80
2023-12-18T07:39:08.213Z,70.20
2023-12-18T07:41:35.441Z,68.10
2023-12-18T07:44:03.659Z,68.00
2023-12-18T07:46:30.932Z,70.80
2023-12-18T07:48:58.351Z,65.40
2023-12-18T07:51:25.657Z,67.00
2023-12-18T07:53:52.898Z,65.90
2023-12-18T07:56:20.047Z,67.90
2023-12-18T07:58:47.269Z,64.60
2023-12-18T08:01:20.467Z,60.40
2023-12-18T08:03:48.853Z,62.10
2023-12-18T08:06:16.095Z,59.50
2023-12-18T08:08:43.604Z,64.40
2023-12-18T08:11:10.967Z,67.20
2023-12-18T08:13:42.122Z,60.40
2023-12-18T08:16:11.830Z,65.30
2023-12-18T08:18:39.220Z,66.90
2023-12-18T08:21:06.490Z,57.10
2023-12-18T08:23:33.828Z,54.30
2023-12-18T08:26:01.173Z,57.90
2023-12-18T08:28:28.253Z,58.20
2023-12-18T08:30:55.376Z,39.90
2023-12-18T08:33:22.559Z,36.20
2023-12-18T08:35:50.709Z,34.00
2023-12-18T08:38:17.773Z,30.40
2023-12-18T08:40:46.348Z,28.90
2023-12-18T08:43:13.511Z,26.00
2023-12-18T08:45:41.353Z,25.50
2023-12-18T08:48:09.123Z,26.20
2023-12-18T08:50:36.476Z,22.00
2023-12-18T08:53:04.083Z,23.60
2023-12-18T08:55:32.826Z,25.20
2023-12-18T08:57:59.919Z,22.40
2023-12-18T09:00:27.539Z,24.00
2023-12-18T09:02:55.563Z,23.20
2023-12-18T09:05:22.851Z,25.40
2023-12-18T09:07:50.096Z,23.00
2023-12-18T09:10:18.868Z,18.10
2023-12-18T09:12:46.032Z,25.30
2023-12-18T09:15:15.899Z,23.60
2023-12-18T09:17:44.256Z,21.70
2023-12-18T09:20:11.916Z,22.50
2023-12-18T09:22:39.487Z,21.60
2023-12-18T09:25:07.069Z,26.90
2023-12-18T09:27:34.304Z,24.00
2023-12-18T09:30:01.846Z,23.80
2023-12-18T09:32:29.502Z,24.10
2023-12-18T09:34:56.944Z,23.10
2023-12-18T09:37:26.007Z,21.10
2023-12-18T09:39:53.376Z,21.20
2023-12-18T09:42:22.016Z,23.50
2023-12-18T09:44:50.497Z,24.20
2023-12-18T09:47:17.957Z,21.20
2023-12-18T09:49:45.988Z,20.40
2023-12-18T09:52:17.867Z,19.50
2023-12-18T09:54:46.842Z,18.00
2023-12-18T09:57:18.587Z,17.80
2023-12-18T09:59:46.309Z,19.90
2023-12-18T10:02:14.516Z,18.10
2023-12-18T10:04:43.115Z,17.20
2023-12-18T10:07:10.549Z,17.30
2023-12-18T10:09:37.960Z,17.80
2023-12-18T10:12:05.799Z,17.40
2023-12-18T10:14:34.641Z,16.90
2023-12-18T10:17:01.956Z,18.90
2023-12-18T10:19:29.400Z,18.00
2023-12-18T10:21:56.637Z,22.40
2023-12-18T10:24:23.852Z,17.10
2023-12-18T10:26:51.202Z,16.50
2023-12-18T10:29:18.759Z,18.00
2023-12-18T10:31:46.299Z,19.60
2023-12-18T10:34:18.131Z,21.40
2023-12-18T10:36:46.724Z,18.30
2023-12-18T10:39:19.493Z,16.20
2023-12-18T10:41:53.664Z,19.70
2023-12-18T10:44:23.946Z,20.10
2023-12-18T10:46:52.542Z,21.10
2023-12-18T10:49:21.452Z,19.00
2023-12-18T10:51:52.386Z,21.00
2023-12-18T10:54:20.694Z,21.60
2023-12-18T10:56:49.386Z,19.50
2023-12-18T10:59:19.517Z,17.60
2023-12-18T11:01:47.755Z,17.20
2023-12-18T11:04:17.265Z,16.20
2023-12-18T11:06:47.937Z,16.90
2023-12-18T11:09:15.175Z,16.40
2023-12-18T11:11:42.769Z,16.50
2023-12-18T11:14:18.414Z,16.60
2023-12-18T11:16:54.780Z,18.80
2023-12-18T11:19:46.319Z,19.40
2023-12-18T11:22:17.060Z,18.40
2023-12-18T11:24:46.979Z,28.90
2023-12-18T11:27:18.022Z,22.60
2023-12-18T11:29:49.017Z,30.70
2023-12-18T11:32:43.229Z,37.60
2023-12-18T11:35:12.437Z,22.90
2023-12-18T11:37:53.797Z,21.80
2023-12-18T11:40:31.803Z,19.90
2023-12-18T11:42:59.931Z,18.30
2023-12-18T11:45:28.221Z,20.90
2023-12-18T11:47:58.756Z,16.70
2023-12-18T11:50:27.721Z,19.90
2023-12-18T11:52:56.072Z,15.70
2023-12-18T11:55:42.199Z,18.20
2023-12-18T11:58:09.830Z,15.70
2023-12-18T12:00:38.970Z,12.60
2023-12-18T12:03:06.492Z,14.60
2023-12-18T12:05:34.175Z,12.30
2023-12-18T12:08:01.941Z,12.50
2023-12-18T12:10:29.207Z,16.60
2023-12-18T12:12:58.439Z,18.20
2023-12-18T12:15:26.085Z,15.40
2023-12-18T12:18:06.127Z,15.50
2023-12-18T12:20:34.273Z,17.60
2023-12-18T12:23:01.398Z,13.30
2023-12-18T12:25:29.100Z,13.70
2023-12-18T12:27:56.478Z,12.30
2023-12-18T12:30:24.203Z,14.50
2023-12-18T12:32:53.498Z,16.50
2023-12-18T12:35:21.108Z,17.30
2023-12-18T12:37:48.876Z,17.10
2023-12-18T12:40:16.234Z,14.90
2023-12-18T12:42:44.185Z,13.30
2023-12-18T12:45:11.906Z,15.60
2023-12-18T12:47:40.545Z,17.50
2023-12-18T12:50:09.058Z,15.20
2023-12-18T12:52:38.230Z,16.80
2023-12-18T12:55:06.538Z,14.90
2023-12-18T12:57:34.057Z,15.50
2023-12-18T13:00:01.823Z,15.40
2023-12-18T13:02:29.605Z,15.80
2023-12-18T13:04:57.232Z,15.60
2023-12-18T13:07:24.774Z,13.40
2023-12-18T13:09:52.866Z,15.60
2023-12-18T13:12:20.534Z,15.30
2023-12-18T13:14:50.056Z,16.10
2023-12-18T13:17:17.388Z,15.40
2023-12-18T13:19:44.805Z,15.40
2023-12-18T13:22:12.332Z,13.90
2023-12-18T13:24:39.654Z,13.10
2023-12-18T13:27:07.009Z,13.00
2023-12-18T13:29:34.494Z,12.00
2023-12-18T13:32:04.651Z,13.20
2023-12-18T13:34:32.912Z,12.20
2023-12-18T13:37:02.098Z,11.50
2023-12-18T13:39:29.717Z,11.60
2023-12-18T13:42:00.442Z,10.50
2023-12-18T13:44:29.391Z,12.80
2023-12-18T13:46:56.842Z,11.20
2023-12-18T13:49:24.195Z,9.70
2023-12-18T13:51:51.741Z,7.80
2023-12-18T13:54:22.268Z,8.70
2023-12-18T13:56:49.722Z,5.60
2023-12-18T13:59:16.852Z,6.80
2023-12-18T14:01:45.128Z,10.70
2023-12-18T14:04:12.824Z,8.00
2023-12-18T14:06:40.606Z,6.40
2023-12-18T14:09:10.327Z,6.20
2023-12-18T14:11:37.539Z,7.50
2023-12-18T14:14:04.760Z,7.30
2023-12-18T14:16:32.049Z,7.40
2023-12-18T14:18:59.656Z,5.40
2023-12-18T14:21:27.319Z,6.10
2023-12-18T14:23:54.710Z,8.20
2023-12-18T14:26:22.314Z,9.10
2023-12-18T14:28:49.846Z,7.50
2023-12-18T14:31:17.593Z,8.90
2023-12-18T14:33:45.021Z,14.20
2023-12-18T14:36:12.792Z,18.60
2023-12-18T14:38:40.031Z,26.10
2023-12-18T14:41:08.137Z,25.90
2023-12-18T14:43:35.869Z,30.10
2023-12-18T14:46:04.627Z,29.90
2023-12-18T14:48:35.724Z,29.00
2023-12-18T14:51:03.762Z,28.40
2023-12-18T14:53:30.946Z,24.70
2023-12-18T14:55:58.002Z,23.40
2023-12-18T14:58:25.505Z,24.90
2023-12-18T15:00:53.018Z,20.30
2023-12-18T15:03:20.734Z,19.10
2023-12-18T15:05:49.899Z,19.90
2023-12-18T15:08:17.776Z,28.80
2023-12-18T15:10:45.509Z,32.10
2023-12-18T15:13:13.376Z,31.20
2023-12-18T15:15:41.173Z,35.60
2023-12-18T15:18:08.732Z,29.60
2023-12-18T15:20:35.953Z,31.10
2023-12-18T15:23:03.519Z,29.60
2023-12-18T15:25:30.741Z,34.70
2023-12-18T15:27:58.208Z,34.20
2023-12-18T15:30:25.741Z,37.10
2023-12-18T15:32:53.292Z,37.10
2023-12-18T15:35:21.236Z,43.30
2023-12-18T15:37:48.870Z,48.80
2023-12-18T15:40:16.804Z,48.60
2023-12-18T15:42:44.275Z,48.80
2023-12-18T15:45:12.040Z,50.70
2023-12-18T15:47:39.713Z,44.90
2023-12-18T15:50:08.796Z,41.90
2023-12-18T15:52:36.405Z,43.40
2023-12-18T15:55:04.308Z,48.00
2023-12-18T15:57:32.066Z,50.70
2023-12-18T15:59:59.581Z,40.40
2023-12-18T16:02:27.165Z,44.40
2023-12-18T16:04:55.039Z,43.00
2023-12-18T16:07:22.581Z,53.80
2023-12-18T16:09:50.274Z,52.80
2023-12-18T16:12:19.231Z,57.60
2023-12-18T16:14:46.521Z,59.10
2023-12-18T16:17:13.981Z,65.10
2023-12-18T16:19:41.320Z,55.30
2023-12-18T16:22:08.652Z,59.20
2023-12-18T16:24:36.706Z,56.10
2023-12-18T16:27:07.121Z,53.40
2023-12-18T16:29:39.269Z,52.60
2023-12-18T16:32:08.248Z,52.40
2023-12-18T16:34:40.514Z,51.10
2023-12-18T16:37:09.114Z,52.10
2023-12-18T16:39:43.836Z,67.00
2023-12-18T16:42:12.325Z,59.00
2023-12-18T16:44:40.420Z,42.50
2023-12-18T16:47:08.290Z,50.80
2023-12-18T16:49:35.803Z,38.30
2023-12-18T16:52:03.316Z,39.90
2023-12-18T16:54:30.708Z,37.90
2023-12-18T16:56:58.034Z,31.60
2023-12-18T16:59:25.670Z,38.50
2023-12-18T17:01:53.116Z,40.30
2023-12-18T17:04:21.299Z,43.40
2023-12-18T17:06:48.728Z,47.80
2023-12-18T17:09:16.918Z,50.40
2023-12-18T17:11:44.272Z,51.40
2023-12-18T17:14:13.165Z,50.20
2023-12-18T17:16:43.166Z,47.30
2023-12-18T17:19:10.656Z,41.70
2023-12-18T17:21:38.208Z,44.30
2023-12-18T17:24:08.056Z,43.50
2023-12-18T17:26:35.266Z,41.50
2023-12-18T17:29:02.630Z,38.90
2023-12-18T17:31:30.505Z,51.30
2023-12-18T17:33:58.341Z,41.70
2023-12-18T17:36:27.377Z,45.70
2023-12-18T17:38:55.660Z,43.90
2023-12-18T17:41:24.039Z,71.60
2023-12-18T17:43:53.441Z,90.10
2023-12-18T17:46:20.901Z,69.50
2023-12-18T17:48:48.366Z,55.60
2023-12-18T17:51:16.496Z,47.80
2023-12-18T17:53:43.759Z,48.80
2023-12-18T17:56:11.054Z,43.10
2023-12-18T17:58:38.780Z,41.20
2023-12-18T18:01:06.208Z,42.10
2023-12-18T18:03:34.918Z,42.30
2023-12-18T18:06:02.474Z,34.80
2023-12-18T18:08:30.311Z,84.90
2023-12-18T18:10:57.895Z,56.40
2023-12-18T18:13:25.148Z,63.40
2023-12-18T18:15:55.195Z,51.80
2023-12-18T18:18:22.815Z,54.20
2023-12-18T18:20:50.284Z,57.40
2023-12-18T18:23:17.820Z,43.10
2023-12-18T18:25:45.210Z,35.50
2023-12-18T18:28:12.793Z,37.70
2023-12-18T18:30:42.774Z,36.30
2023-12-18T18:33:12.259Z,43.30
2023-12-18T18:35:39.901Z,57.50
2023-12-18T18:38:07.343Z,62.90
2023-12-18T18:40:35.120Z,73.60
2023-12-18T18:43:02.467Z,57.30
2023-12-18T18:45:29.725Z,49.40
2023-12-18T18:47:57.079Z,46.70
2023-12-18T18:50:24.443Z,42.50
2023-12-18T18:52:51.803Z,61.60
2023-12-18T18:55:19.275Z,47.90
2023-12-18T18:57:48.568Z,71.00
2023-12-18T19:00:17.046Z,41.80
2023-12-18T19:02:44.244Z,87.00
2023-12-18T19:05:11.666Z,52.00
2023-12-18T19:07:38.950Z,49.70
2023-12-18T19:10:07.141Z,69.90
2023-12-18T19:12:38.365Z,57.70
2023-12-18T19:15:06.394Z,71.30
2023-12-18T19:17:33.427Z,66.10
2023-12-18T19:20:00.634Z,53.70
2023-12-18T19:22:29.330Z,51.80
2023-12-18T19:24:56.814Z,46.70
2023-12-18T19:27:24.159Z,47.20
2023-12-18T19:29:51.211Z,46.00
2023-12-18T19:32:18.877Z,40.00
2023-12-18T19:34:46.650Z,36.40
2023-12-18T19:37:13.997Z,47.90
2023-12-18T19:39:41.625Z,55.00
2023-12-18T19:42:08.827Z,124.60
2023-12-18T19:44:36.179Z,72.50
2023-12-18T19:47:03.955Z,38.50
2023-12-18T19:49:31.241Z,46.60
2023-12-18T19:51:58.733Z,46.90
2023-12-18T19:54:25.882Z,75.20
2023-12-18T19:56:53.090Z,91.70
2023-12-18T19:59:20.447Z,78.20
2023-12-18T20:01:47.576Z,88.20
2023-12-18T20:04:16.394Z,74.50
2023-12-18T20:06:45.685Z,59.00
2023-12-18T20:09:13.016Z,50.10
2023-12-18T20:11:40.071Z,56.20
2023-12-18T20:14:07.913Z,54.30
2023-12-18T20:16:36.372Z,48.80
2023-12-18T20:19:05.088Z,56.40
2023-12-18T20:21:32.862Z,84.20
2023-12-18T20:23:59.956Z,126.20
2023-12-18T20:26:27.086Z,109.00
2023-12-18T20:28:54.593Z,57.70
2023-12-18T20:31:22.362Z,60.90
2023-12-18T20:33:50.103Z,81.10
2023-12-18T20:36:17.577Z,67.80
2023-12-18T20:38:46.388Z,54.80
2023-12-18T20:41:13.865Z,52.70
2023-12-18T20:43:41.012Z,50.20
2023-12-18T20:46:08.342Z,55.20
2023-12-18T20:48:35.596Z,55.00
2023-12-18T20:51:03.047Z,51.30
2023-12-18T20:53:30.166Z,60.80
2023-12-18T20:55:57.167Z,60.20
2023-12-18T20:58:24.801Z,57.40
2023-12-18T21:00:52.044Z,65.00
2023-12-18T21:03:19.274Z,69.60
2023-12-18T21:05:46.773Z,63.40
2023-12-18T21:08:13.913Z,60.10
2023-12-18T21:10:41.422Z,53.30
2023-12-18T21:13:09.435Z,56.90
2023-12-18T21:15:36.851Z,60.30
2023-12-18T21:18:04.300Z,55.70
2023-12-18T21:20:31.456Z,50.00
2023-12-18T21:22:58.608Z,43.90
2023-12-18T21:25:25.958Z,42.50
2023-12-18T21:27:53.225Z,49.50
2023-12-18T21:30:20.430Z,47.00
2023-12-18T21:32:47.848Z,45.10
2023-12-18T21:35:15.469Z,48.00
2023-12-18T21:37:42.940Z,50.10
2023-12-18T21:40:10.607Z,53.50
2023-12-18T21:42:37.808Z,51.50
2023-12-18T21:45:05.445Z,41.30
2023-12-18T21:47:32.607Z,40.30
2023-12-18T21:50:00.325Z,38.30
2023-12-18T21:52:27.975Z,35.30
2023-12-18T21:54:56.324Z,36.00
2023-12-18T21:57:23.484Z,81.80
2023-12-18T21:59:50.916Z,58.00
2023-12-18T22:02:17.928Z,54.60
2023-12-18T22:04:45.107Z,45.00
2023-12-18T22:07:12.313Z,38.50
2023-12-18T22:09:40.170Z,34.20
2023-12-18T22:12:08.039Z,38.50
2023-12-18T22:14:35.116Z,33.90
2023-12-18T22:17:02.287Z,34.90
2023-12-18T22:19:29.464Z,32.70
2023-12-18T22:21:56.936Z,35.90
2023-12-18T22:24:24.173Z,34.00
2023-12-18T22:26:52.645Z,30.20
2023-12-18T22:29:19.745Z,34.50
2023-12-18T22:31:47.269Z,33.60
2023-12-18T22:34:14.443Z,36.30
2023-12-18T22:36:41.575Z,36.90
2023-12-18T22:39:11.863Z,36.00
2023-12-18T22:41:41.157Z,36.90
2023-12-18T22:44:08.695Z,33.40
2023-12-18T22:46:37.656Z,35.40
2023-12-18T22:49:04.748Z,34.60
2023-12-18T22:51:32.267Z,33.20
2023-12-18T22:53:59.322Z,36.10
2023-12-18T22:56:26.571Z,42.50
2023-12-18T22:58:53.969Z,45.30
2023-12-18T23:01:22.406Z,36.30
2023-12-18T23:03:49.768Z,34.70
2023-12-18T23:06:17.003Z,34.30
2023-12-18T23:08:45.404Z,32.10
2023-12-18T23:11:12.641Z,31.70
2023-12-18T23:13:41.444Z,31.10
2023-12-18T23:16:08.421Z,32.60
2023-12-18T23:18:35.465Z,33.50
2023-12-18T23:21:06.191Z,31.40
2023-12-18T23:23:33.287Z,36.70
2023-12-18T23:26:00.647Z,35.80
2023-12-18T23:28:28.915Z,33.10
2023-12-18T23:30:56.048Z,34.10
2023-12-18T23:33:28.356Z,40.20
2023-12-18T23:35:59.277Z,50.30
2023-12-18T23:38:26.613Z,48.20
2023-12-18T23:40:54.047Z,58.60
2023-12-18T23:43:21.118Z,53.10
2023-12-18T23:45:48.209Z,48.10
2023-12-18T23:48:15.430Z,46.50
2023-12-18T23:50:44.693Z,45.00
2023-12-18T23:53:13.182Z,45.50
2023-12-18T23:55:40.514Z,43.70
2023-12-18T23:58:07.864Z,46.00
